Time;durP1;ratioP1;P1;durP2;ratioP2;P2;SDS_P1;SDS_P2;PMS_P1;PMS_P2;Temp;Humidity;BMP_temperature;BMP_pressure;BME280_temperature;BME280_humidity;BME280_pressure;Samples;Min_cycle;Max_cycle;Signal;HPM_P1;HPM_P2
2023/04/12 00:02:05;;;;;;;10.80;4.40;;;;;;;6.52;99.92;99253.69;105033;1260;60898;-68
2023/04/12 00:04:56;;;;;;;12.00;4.70;;;;;;;6.54;100.00;99255.69;105204;1266;70998;-69
2023/04/12 00:07:45;;;;;;;11.00;4.90;;;;;;;6.56;99.96;99254.50;105187;1260;68327;-70
2023/04/12 00:10:32;;;;;;;9.80;4.70;;;;;;;6.55;99.66;99256.28;105261;1267;72667;-69
2023/04/12 00:13:19;;;;;;;11.50;5.80;;;;;;;6.55;99.59;99256.13;105137;1269;60153;-69
2023/04/12 00:16:08;;;;;;;10.00;4.60;;;;;;;6.55;99.85;99256.46;105159;1260;60813;-71
2023/04/12 00:18:56;;;;;;;11.50;5.40;;;;;;;6.55;99.68;99254.89;105010;1266;70419;-70
2023/04/12 00:21:44;;;;;;;11.70;4.90;;;;;;;6.56;99.50;99255.73;104837;1266;66484;-70
2023/04/12 00:24:31;;;;;;;9.90;4.90;;;;;;;6.56;99.49;99253.61;105051;1260;73173;-71
2023/04/12 00:27:18;;;;;;;9.90;5.20;;;;;;;6.53;99.11;99254.16;104755;1260;59304;-71
2023/04/12 00:30:07;;;;;;;10.90;4.80;;;;;;;6.51;99.27;99257.34;105020;1260;60370;-71
2023/04/12 00:32:54;;;;;;;10.00;4.70;;;;;;;6.50;99.71;99260.17;104966;1267;71313;-70
2023/04/12 00:35:41;;;;;;;10.40;5.30;;;;;;;6.49;99.69;99260.76;104949;1267;67633;-70
2023/04/12 00:38:28;;;;;;;10.50;5.00;;;;;;;6.49;99.95;99257.64;104981;1266;72940;-73
2023/04/12 00:41:16;;;;;;;12.00;4.90;;;;;;;6.47;99.61;99257.95;104798;1271;59850;-70
2023/04/12 00:44:03;;;;;;;10.00;4.60;;;;;;;6.44;99.63;99259.58;104834;1261;59298;-70
2023/04/12 00:46:50;;;;;;;10.20;4.80;;;;;;;6.44;99.90;99261.02;104992;1267;71968;-72
2023/04/12 00:49:37;;;;;;;9.60;4.40;;;;;;;6.44;99.54;99260.31;104931;1269;67021;-70
2023/04/12 00:52:26;;;;;;;9.10;4.20;;;;;;;6.45;99.80;99257.41;104899;1261;71246;-70
2023/04/12 00:55:14;;;;;;;8.20;4.30;;;;;;;6.44;99.44;99256.71;105263;1261;59357;-71
2023/04/12 00:58:02;;;;;;;9.60;4.10;;;;;;;6.43;99.22;99253.98;105254;1260;59936;-69
2023/04/12 01:00:51;;;;;;;8.10;3.70;;;;;;;6.46;99.38;99246.57;104943;1261;71217;-68
2023/04/12 01:03:41;;;;;;;8.00;3.50;;;;;;;6.45;98.98;99244.64;105224;1261;68262;-69
2023/04/12 01:07:04;;;;;;;7.60;3.60;;;;;;;6.42;98.53;99246.66;105266;1263;72369;-69
2023/04/12 01:10:13;;;;;;;8.30;3.50;;;;;;;6.34;98.71;99249.38;104975;1270;59257;-66
2023/04/12 01:13:17;;;;;;;8.50;3.60;;;;;;;6.32;98.69;99255.19;104933;1266;61054;-67
2023/04/12 01:16:43;;;;;;;8.60;3.70;;;;;;;6.28;98.90;99258.80;105001;1265;72754;-70
2023/04/12 01:20:12;;;;;;;9.80;4.20;;;;;;;6.22;98.85;99254.88;105035;1265;68795;-71
2023/04/12 01:23:23;;;;;;;9.30;4.80;;;;;;;6.19;99.22;99254.73;104901;1266;71285;-70
2023/04/12 01:26:40;;;;;;;10.20;4.90;;;;;;;6.17;99.36;99256.96;105004;1270;59392;-70
2023/04/12 01:29:29;;;;;;;11.50;4.30;;;;;;;6.16;99.38;99257.37;104897;1267;60920;-70
2023/04/12 01:32:18;;;;;;;11.10;4.80;;;;;;;6.14;99.38;99260.48;104840;1270;70990;-70
2023/04/12 01:35:07;;;;;;;10.80;4.90;;;;;;;6.15;99.55;99262.05;104784;1265;68503;-71
2023/04/12 01:37:56;;;;;;;9.80;4.60;;;;;;;6.17;99.60;99264.20;105067;1268;72030;-71
2023/04/12 01:40:43;;;;;;;10.30;4.40;;;;;;;6.18;99.24;99259.17;104943;1265;60987;-70
2023/04/12 01:43:38;;;;;;;10.30;4.60;;;;;;;6.19;99.38;99257.84;104775;1265;60064;-70
2023/04/12 01:46:25;;;;;;;10.80;4.90;;;;;;;6.18;98.99;99256.16;105173;1261;71635;-70
2023/04/12 01:49:15;;;;;;;9.70;4.30;;;;;;;6.19;99.28;99257.52;105297;1263;67790;-70
2023/04/12 01:52:18;;;;;;;9.40;4.40;;;;;;;6.17;98.95;99257.67;105188;1264;74871;-70
2023/04/12 01:55:05;;;;;;;9.20;4.90;;;;;;;6.15;99.31;99259.88;105144;1264;59291;-69
2023/04/12 01:57:52;;;;;;;12.10;5.00;;;;;;;6.16;99.54;99262.52;105010;1264;59601;-71
2023/04/12 02:00:41;;;;;;;10.50;4.80;;;;;;;6.16;99.49;99262.48;105188;1257;71252;-71
2023/04/12 02:03:30;;;;;;;15.40;7.40;;;;;;;6.18;99.71;99258.14;105332;1259;66782;-70
2023/04/12 02:06:21;;;;;;;46.30;23.80;;;;;;;6.19;99.28;99255.77;105370;1257;74277;-73
2023/04/12 02:09:08;;;;;;;44.80;22.00;;;;;;;6.18;99.51;99253.18;105374;1256;59318;-70
2023/04/12 02:11:56;;;;;;;33.40;17.90;;;;;;;6.18;99.37;99256.06;105442;1259;59794;-71
2023/04/12 02:14:44;;;;;;;34.80;18.20;;;;;;;6.19;99.57;99258.56;105331;1257;70822;-72
2023/04/12 02:17:31;;;;;;;34.40;16.90;;;;;;;6.21;99.43;99263.38;105279;1259;67849;-72
2023/04/12 02:20:17;;;;;;;34.30;16.00;;;;;;;6.23;99.97;99261.26;105404;1259;74638;-71
2023/04/12 02:23:05;;;;;;;33.50;16.90;;;;;;;6.25;99.82;99254.25;105421;1254;59370;-72
2023/04/12 02:25:52;;;;;;;22.40;11.60;;;;;;;6.28;99.81;99252.60;105407;1259;59342;-72
2023/04/12 02:28:39;;;;;;;14.30;7.00;;;;;;;6.30;99.57;99251.25;105466;1265;72317;-73
2023/04/12 02:31:30;;;;;;;11.40;5.50;;;;;;;6.31;99.28;99253.14;105450;1258;67982;-71
2023/04/12 02:34:18;;;;;;;10.30;5.20;;;;;;;6.32;99.94;99252.86;105656;1261;71875;-71
2023/04/12 02:37:12;;;;;;;10.20;4.50;;;;;;;6.33;99.79;99258.27;105530;1255;59220;-71
2023/04/12 02:40:01;;;;;;;10.40;4.60;;;;;;;6.32;99.53;99258.68;105679;1254;60987;-70
2023/04/12 02:42:49;;;;;;;10.30;4.90;;;;;;;6.31;99.73;99262.98;104099;1263;1003626;-69
2023/04/12 02:45:36;;;;;;;10.50;5.10;;;;;;;6.30;99.85;99259.70;105560;1263;67276;-72
2023/04/12 02:48:23;;;;;;;12.50;6.60;;;;;;;6.30;99.96;99254.20;105357;1254;72714;-71
2023/04/12 02:51:12;;;;;;;13.60;7.30;;;;;;;6.31;100.00;99255.23;105366;1256;59309;-71
2023/04/12 02:54:00;;;;;;;12.50;5.60;;;;;;;6.30;99.87;99252.29;105381;1260;59342;-70
2023/04/12 02:56:51;;;;;;;12.30;5.80;;;;;;;6.30;99.97;99257.77;105391;1254;71228;-72
2023/04/12 02:59:54;;;;;;;10.70;4.90;;;;;;;6.33;100.00;99258.23;105623;1254;66576;-71
2023/04/12 03:02:50;;;;;;;12.50;5.80;;;;;;;6.34;99.97;99258.36;105722;1258;72118;-69
2023/04/12 03:05:46;;;;;;;11.00;5.60;;;;;;;6.35;100.00;99256.02;105667;1257;59337;-71
2023/04/12 03:08:35;;;;;;;12.70;5.70;;;;;;;6.35;99.85;99248.27;105619;1260;60827;-72
2023/04/12 03:11:22;;;;;;;10.70;5.40;;;;;;;6.38;100.00;99255.95;105259;1258;70704;-71
2023/04/12 03:14:09;;;;;;;10.10;4.70;;;;;;;6.40;100.00;99253.17;105305;1258;66408;-72
2023/04/12 03:17:01;;;;;;;9.70;4.60;;;;;;;6.40;100.00;99258.30;105465;1257;71495;-71
2023/04/12 03:19:50;;;;;;;11.10;5.30;;;;;;;6.39;100.00;99259.43;105385;1267;60764;-71
2023/04/12 03:22:39;;;;;;;10.80;5.60;;;;;;;6.38;99.96;99266.13;105173;1262;59446;-69
2023/04/12 03:25:28;;;;;;;12.20;5.10;;;;;;;6.38;100.00;99260.15;104900;1263;71622;-69
2023/04/12 03:28:20;;;;;;;12.30;5.30;;;;;;;6.37;100.00;99260.05;105046;1263;68498;-71
2023/04/12 03:31:09;;;;;;;10.20;4.80;;;;;;;6.38;100.00;99263.68;104988;1265;71433;-70
2023/04/12 03:34:01;;;;;;;10.50;5.00;;;;;;;6.40;100.00;99269.03;104967;1263;59235;-70
2023/04/12 03:36:49;;;;;;;11.70;4.90;;;;;;;6.41;99.98;99268.80;105049;1270;60092;-69
2023/04/12 03:39:43;;;;;;;11.70;5.20;;;;;;;6.41;100.00;99271.08;105192;1264;72700;-71
2023/04/12 03:42:30;;;;;;;10.90;5.20;;;;;;;6.42;100.00;99272.90;105320;1266;68384;-68
2023/04/12 03:45:42;;;;;;;11.90;5.20;;;;;;;6.44;100.00;99272.59;104981;1267;73189;-68
2023/04/12 03:48:29;;;;;;;11.90;5.30;;;;;;;6.49;100.00;99275.42;104857;1270;59910;-67
2023/04/12 03:51:16;;;;;;;10.30;5.00;;;;;;;6.53;100.00;99273.36;105030;1270;62113;-68
2023/04/12 03:54:03;;;;;;;9.80;4.90;;;;;;;6.54;100.00;99269.56;104950;1264;72700;-75
2023/04/12 03:57:00;;;;;;;10.40;4.80;;;;;;;6.57;99.88;99267.07;105204;1264;68569;-68
2023/04/12 03:59:54;;;;;;;10.90;5.30;;;;;;;6.58;99.78;99263.70;105226;1261;73177;-68
2023/04/12 04:02:46;;;;;;;10.90;4.80;;;;;;;6.56;99.49;99256.77;104943;1262;59285;-69
2023/04/12 04:05:33;;;;;;;11.60;5.40;;;;;;;6.51;99.31;99251.83;105542;1261;59453;-68
2023/04/12 04:08:21;;;;;;;13.40;6.10;;;;;;;6.46;99.25;99247.80;105386;1258;72839;-68
2023/04/12 04:11:11;;;;;;;12.70;6.10;;;;;;;6.42;99.60;99241.91;105354;1261;68382;-69
2023/04/12 04:14:00;;;;;;;13.10;5.80;;;;;;;6.38;99.67;99236.92;105392;1258;74668;-69
2023/04/12 04:16:48;;;;;;;12.90;6.50;;;;;;;6.34;99.79;99238.80;105562;1260;59734;-67
2023/04/12 04:19:35;;;;;;;12.20;6.00;;;;;;;6.36;99.97;99235.35;105730;1254;60269;-69
2023/04/12 04:22:22;;;;;;;12.60;6.10;;;;;;;6.38;100.00;99231.12;105628;1256;71453;-69
2023/04/12 04:25:13;;;;;;;13.20;6.30;;;;;;;6.39;99.99;99235.95;105584;1263;67131;-69
2023/04/12 04:28:01;;;;;;;10.90;5.70;;;;;;;6.43;100.00;99234.61;105477;1255;74209;-67
2023/04/12 04:30:50;;;;;;;11.30;6.00;;;;;;;6.47;100.00;99238.36;105604;1261;59521;-70
2023/04/12 04:33:38;;;;;;;13.00;5.90;;;;;;;6.51;100.00;99240.05;105794;1254;59743;-71
2023/04/12 04:36:26;;;;;;;11.80;5.60;;;;;;;6.54;99.94;99237.54;105632;1256;73746;-69
2023/04/12 04:39:14;;;;;;;14.10;6.30;;;;;;;6.59;99.83;99242.99;105572;1254;67598;-70
2023/04/12 04:42:05;;;;;;;13.50;6.70;;;;;;;6.66;99.67;99246.30;105696;1255;72076;-75
2023/04/12 04:45:01;;;;;;;11.80;6.20;;;;;;;6.79;99.93;99244.50;105675;1261;59290;-69
2023/04/12 04:47:49;;;;;;;11.80;5.70;;;;;;;6.88;99.41;99236.43;105847;1253;60784;-72
2023/04/12 04:50:36;;;;;;;12.20;5.70;;;;;;;6.94;98.72;99235.61;105899;1260;73445;-72
2023/04/12 04:53:24;;;;;;;15.30;6.70;;;;;;;6.97;98.32;99237.64;105886;1255;66698;-72
2023/04/12 04:56:11;;;;;;;12.20;6.10;;;;;;;7.01;98.29;99241.98;105725;1254;70392;-73
2023/04/12 04:58:57;;;;;;;12.80;6.60;;;;;;;7.03;98.29;99247.83;106025;1255;59283;-74
2023/04/12 05:01:45;;;;;;;13.80;6.50;;;;;;;7.06;98.00;99244.92;105972;1256;59940;-80
2023/04/12 05:04:36;;;;;;;14.10;6.90;;;;;;;7.08;97.85;99249.71;106132;1257;70634;-81
2023/04/12 05:07:24;;;;;;;15.60;7.70;;;;;;;7.12;97.72;99247.84;106032;1254;66491;-81
2023/04/12 05:10:12;;;;;;;15.80;8.10;;;;;;;7.13;97.25;99247.20;106044;1254;71415;-80
2023/04/12 05:13:00;;;;;;;15.10;8.60;;;;;;;7.16;97.40;99245.35;105840;1256;59719;-81
2023/04/12 05:15:49;;;;;;;15.70;7.70;;;;;;;7.24;97.32;99234.42;105944;1258;59180;-79
2023/04/12 05:18:37;;;;;;;16.40;8.30;;;;;;;7.33;96.87;99232.80;105869;1257;70660;-82
2023/04/12 05:21:23;;;;;;;15.70;7.30;;;;;;;7.48;96.57;99237.61;105741;1261;68485;-78
2023/04/12 05:24:10;;;;;;;15.00;7.50;;;;;;;7.59;96.00;99237.48;104882;1265;1003817;-78
2023/04/12 05:26:58;;;;;;;13.50;7.10;;;;;;;7.67;95.38;99245.38;105655;1264;59342;-79
2023/04/12 05:29:46;;;;;;;13.80;7.30;;;;;;;7.64;94.55;99247.16;105431;1258;60222;-77
2023/04/12 05:32:33;;;;;;;14.90;6.80;;;;;;;7.64;94.89;99253.20;105673;1259;72419;-77
2023/04/12 05:35:22;;;;;;;12.90;6.20;;;;;;;7.63;94.68;99252.23;105506;1265;66401;-77
2023/04/12 05:38:10;;;;;;;12.90;6.80;;;;;;;7.62;94.29;99254.42;105498;1259;72426;-78
2023/04/12 05:40:57;;;;;;;13.90;7.40;;;;;;;7.61;94.14;99251.80;105483;1259;59719;-78
2023/04/12 05:43:44;;;;;;;14.90;7.00;;;;;;;7.67;94.23;99247.83;105524;1266;59231;-74
2023/04/12 05:46:31;;;;;;;12.50;6.40;;;;;;;7.71;94.12;99242.60;105667;1260;72294;-75
2023/04/12 05:49:18;;;;;;;13.60;6.60;;;;;;;7.71;93.93;99245.73;105593;1258;65541;-73
2023/04/12 05:52:05;;;;;;;14.50;7.20;;;;;;;7.79;93.57;99239.29;105219;1259;72504;-74
2023/04/12 05:54:55;;;;;;;14.00;6.10;;;;;;;7.97;93.35;99237.90;105716;1259;59352;-74
2023/04/12 05:57:45;;;;;;;12.50;6.30;;;;;;;8.14;92.49;99238.42;105288;1259;59462;-75
2023/04/12 06:00:35;;;;;;;14.60;7.10;;;;;;;8.22;91.09;99235.88;105354;1265;71242;-76
2023/04/12 06:03:22;;;;;;;13.60;6.30;;;;;;;8.28;91.30;99232.75;105592;1261;68008;-75
2023/04/12 06:06:10;;;;;;;13.70;6.80;;;;;;;8.30;90.45;99227.25;105532;1259;72963;-76
2023/04/12 06:08:59;;;;;;;12.50;5.90;;;;;;;8.33;90.71;99224.37;105426;1259;59442;-75
2023/04/12 06:11:47;;;;;;;12.70;6.20;;;;;;;8.40;90.48;99222.42;105970;1259;60277;-77
2023/04/12 06:14:35;;;;;;;12.20;6.40;;;;;;;8.46;90.01;99221.20;105381;1258;72143;-68
2023/04/12 06:17:22;;;;;;;12.20;5.80;;;;;;;8.57;89.80;99218.16;106490;1256;66437;-73
2023/04/12 06:20:11;;;;;;;12.30;6.60;;;;;;;8.73;89.47;99217.20;105757;1261;72637;-73
2023/04/12 06:22:58;;;;;;;12.80;6.00;;;;;;;8.90;88.88;99215.11;105749;1264;59749;-72
2023/04/12 06:25:47;;;;;;;11.80;5.80;;;;;;;9.05;87.93;99218.27;105790;1259;59265;-69
2023/04/12 06:28:34;;;;;;;12.00;6.20;;;;;;;9.24;87.60;99218.45;105783;1254;73526;-69
2023/04/12 06:31:20;;;;;;;13.50;5.90;;;;;;;9.64;86.86;99219.85;105583;1255;68004;-71
2023/04/12 06:34:07;;;;;;;13.50;6.60;;;;;;;9.95;85.52;99218.80;105773;1255;71244;-72
2023/04/12 06:36:58;;;;;;;11.10;5.90;;;;;;;10.67;84.05;99222.02;105747;1258;59021;-72
2023/04/12 06:39:46;;;;;;;11.10;6.00;;;;;;;12.28;79.82;99219.08;105365;1259;59303;-71
2023/04/12 06:42:33;;;;;;;10.60;5.30;;;;;;;13.01;74.47;99221.20;105436;1261;72098;-70
2023/04/12 06:45:19;;;;;;;9.80;4.50;;;;;;;12.84;72.57;99224.47;105446;1258;66641;-71
2023/04/12 06:48:06;;;;;;;9.50;4.50;;;;;;;12.57;72.20;99227.71;105278;1259;71477;-70
2023/04/12 06:50:53;;;;;;;9.50;4.10;;;;;;;12.32;71.42;99230.83;105773;1259;59233;-70
2023/04/12 06:53:40;;;;;;;9.10;3.90;;;;;;;12.03;71.71;99240.38;105422;1257;60137;-71
2023/04/12 06:56:27;;;;;;;9.10;4.30;;;;;;;11.75;71.89;99245.88;105489;1265;72494;-71
2023/04/12 06:59:14;;;;;;;10.00;4.10;;;;;;;11.48;72.50;99246.87;105557;1261;66514;-71
2023/04/12 07:02:01;;;;;;;9.40;3.90;;;;;;;11.35;72.97;99242.23;105449;1262;71570;-70
2023/04/12 07:04:54;;;;;;;8.90;3.70;;;;;;;11.34;73.40;99242.13;105505;1257;59823;-69
2023/04/12 07:07:41;;;;;;;9.60;4.00;;;;;;;11.43;73.89;99241.52;105501;1259;59410;-70
2023/04/12 07:10:30;;;;;;;8.60;3.70;;;;;;;11.45;73.78;99246.27;105472;1254;71007;-74
2023/04/12 07:13:16;;;;;;;8.40;3.70;;;;;;;11.37;72.87;99246.50;105773;1255;66399;-71
2023/04/12 07:16:04;;;;;;;7.80;3.20;;;;;;;11.27;73.36;99244.41;105763;1258;71743;-71
2023/04/12 07:18:51;;;;;;;9.60;3.90;;;;;;;11.16;73.85;99246.81;109507;1254;57052;-71
2023/04/12 07:21:38;;;;;;;8.60;3.40;;;;;;;11.07;73.99;99251.55;109250;1253;60258;-83
2023/04/12 07:24:27;;;;;;;8.30;3.70;;;;;;;10.97;74.15;99248.36;109298;1254;72193;-83
2023/04/12 07:27:13;;;;;;;10.80;3.70;;;;;;;10.88;74.58;99242.95;109343;1254;67744;-82
2023/04/12 07:30:03;;;;;;;10.50;4.90;;;;;;;10.82;74.27;99239.61;109258;1254;72700;-82
2023/04/12 07:32:54;;;;;;;9.80;4.70;;;;;;;10.73;74.42;99245.06;109315;1255;59462;-82
2023/04/12 07:35:53;;;;;;;9.70;4.90;;;;;;;10.59;74.57;99241.20;109349;1254;58817;-83
2023/04/12 07:38:53;;;;;;;9.90;4.50;;;;;;;10.52;75.52;99240.38;109150;1255;70994;-71
2023/04/12 07:41:45;;;;;;;10.70;5.40;;;;;;;10.48;76.02;99241.97;109273;1254;67826;-72
2023/04/12 07:44:32;;;;;;;12.20;5.70;;;;;;;10.42;76.09;99249.62;109204;1254;71244;-71
2023/04/12 07:47:19;;;;;;;9.80;5.20;;;;;;;10.40;75.75;99245.21;109087;1255;57801;-72
2023/04/12 07:50:06;;;;;;;11.90;5.60;;;;;;;10.36;75.86;99242.92;109001;1254;216946;-71
2023/04/12 07:52:53;;;;;;;13.50;7.10;;;;;;;10.23;76.08;99249.50;109270;1254;70412;-71
2023/04/12 07:55:39;;;;;;;11.80;5.70;;;;;;;10.19;76.63;99247.23;109402;1253;67789;-70
2023/04/12 07:58:25;;;;;;;12.50;5.90;;;;;;;10.19;77.31;99240.67;109254;1254;72553;-71
2023/04/12 08:01:12;;;;;;;13.00;6.40;;;;;;;10.21;77.56;99236.57;109101;1254;58118;-71
2023/04/12 08:03:59;;;;;;;12.10;6.60;;;;;;;10.22;77.58;99236.61;109149;1254;58904;-70
2023/04/12 08:06:46;;;;;;;11.00;5.40;;;;;;;10.24;77.39;99237.39;109138;1256;70829;-72
2023/04/12 08:09:33;;;;;;;11.30;5.40;;;;;;;10.23;77.28;99238.30;109219;1258;66443;-72
2023/04/12 08:12:20;;;;;;;11.80;6.10;;;;;;;10.24;77.49;99239.17;109298;1254;72447;-72
2023/04/12 08:15:08;;;;;;;10.90;5.40;;;;;;;10.27;77.76;99235.14;109411;1253;60531;-71
2023/04/12 08:17:55;;;;;;;10.70;5.40;;;;;;;10.24;77.71;99230.47;109209;1254;58905;-70
2023/04/12 08:20:45;;;;;;;12.10;5.80;;;;;;;10.20;77.76;99222.45;109358;1255;70905;-70
2023/04/12 08:23:32;;;;;;;14.10;6.80;;;;;;;10.17;77.97;99215.67;109272;1254;66456;-70
2023/04/12 08:26:18;;;;;;;13.70;7.30;;;;;;;10.15;78.54;99216.88;109361;1254;72532;-73
2023/04/12 08:29:06;;;;;;;14.70;8.00;;;;;;;10.19;79.02;99219.52;109475;1253;58106;-70
2023/04/12 08:31:55;;;;;;;15.60;7.20;;;;;;;10.24;79.45;99220.52;109265;1254;60124;-73
2023/04/12 08:34:41;;;;;;;16.80;8.10;;;;;;;10.33;81.01;99216.77;109502;1254;70602;-68
2023/04/12 08:37:31;;;;;;;13.40;7.40;;;;;;;10.47;79.49;99215.30;109308;1256;67786;-74
2023/04/12 08:40:20;;;;;;;14.40;7.40;;;;;;;10.62;78.89;99217.02;109514;1254;71891;-73
2023/04/12 08:43:08;;;;;;;12.10;6.20;;;;;;;10.64;78.45;99220.66;109356;1254;57186;-73
2023/04/12 08:45:57;;;;;;;13.60;7.60;;;;;;;10.75;78.18;99214.34;109237;1254;60134;-72
2023/04/12 08:48:49;;;;;;;11.60;6.30;;;;;;;10.96;77.08;99209.74;109540;1254;72110;-72
2023/04/12 08:51:36;;;;;;;10.50;6.10;;;;;;;11.18;75.91;99210.95;109339;1253;67649;-73
2023/04/12 08:54:24;;;;;;;12.40;7.00;;;;;;;11.41;74.81;99208.79;109510;1254;72748;-72
2023/04/12 08:57:12;;;;;;;12.70;6.50;;;;;;;11.71;73.94;99199.54;109391;1255;57763;-70
2023/04/12 09:00:00;;;;;;;13.00;6.90;;;;;;;12.09;72.87;99196.11;109575;1254;60401;-72
2023/04/12 09:02:47;;;;;;;13.10;7.10;;;;;;;12.53;71.90;99193.54;109476;1256;71131;-73
2023/04/12 09:05:34;;;;;;;12.70;7.20;;;;;;;12.94;69.80;99198.68;109257;1254;67803;-71
2023/04/12 09:08:21;;;;;;;14.40;7.10;;;;;;;13.36;68.44;99199.23;109176;1256;72818;-71
2023/04/12 09:11:35;;;;;;;12.70;6.40;;;;;;;14.23;65.68;99190.42;109190;1254;56932;-73
2023/04/12 09:14:24;;;;;;;11.20;6.10;;;;;;;14.84;62.50;99189.23;109352;1254;58958;-71
2023/04/12 09:17:26;;;;;;;11.40;6.20;;;;;;;15.61;59.82;99179.45;109300;1255;72084;-72
2023/04/12 09:20:16;;;;;;;11.00;6.10;;;;;;;16.15;58.41;99172.23;109528;1253;66519;-68
2023/04/12 09:23:17;;;;;;;12.10;7.00;;;;;;;16.82;54.70;99170.80;109420;1254;71744;-70
2023/04/12 09:26:04;;;;;;;10.40;5.50;;;;;;;17.20;52.64;99168.45;109310;1254;57430;-70
2023/04/12 09:28:53;;;;;;;12.30;6.50;;;;;;;17.40;51.40;99167.33;109356;1254;58850;-70
2023/04/12 09:31:54;;;;;;;10.00;5.80;;;;;;;18.45;49.39;99162.52;109288;1254;72200;-70
2023/04/12 09:34:55;;;;;;;11.10;5.60;;;;;;;20.15;45.03;99158.15;109365;1254;65393;-69
2023/04/12 09:37:42;;;;;;;9.20;5.20;;;;;;;20.31;43.06;99159.45;109262;1258;71168;-71
2023/04/12 09:40:35;;;;;;;9.40;5.20;;;;;;;20.36;42.91;99157.38;109261;1254;56948;-68
2023/04/12 09:43:38;;;;;;;9.00;5.00;;;;;;;20.98;41.31;99153.77;109177;1258;60143;-71
2023/04/12 09:46:24;;;;;;;9.90;5.00;;;;;;;20.99;40.42;99157.77;109396;1254;72179;-71
2023/04/12 09:49:11;;;;;;;11.30;5.20;;;;;;;22.04;39.23;99151.31;109230;1258;67233;-70
2023/04/12 09:51:57;;;;;;;9.40;4.70;;;;;;;22.90;37.43;99149.58;109168;1257;72666;-69
2023/04/12 09:54:49;;;;;;;11.70;4.60;;;;;;;23.82;36.41;99150.43;109263;1257;57356;-73
2023/04/12 09:57:40;;;;;;;9.40;4.60;;;;;;;24.66;34.26;99142.23;109168;1259;58906;-70
2023/04/12 10:00:27;;;;;;;9.70;4.30;;;;;;;24.90;33.87;99145.81;109245;1260;70882;-73
2023/04/12 10:03:14;;;;;;;10.30;3.70;;;;;;;25.11;32.28;99145.55;109237;1257;66335;-83
2023/04/12 10:06:04;;;;;;;8.70;3.00;;;;;;;24.87;31.35;99142.16;109077;1257;71174;-83
2023/04/12 10:08:51;;;;;;;7.90;3.10;;;;;;;25.30;31.36;99143.21;109177;1256;58106;-82
2023/04/12 10:11:41;;;;;;;8.20;3.50;;;;;;;25.62;30.43;99141.45;109102;1256;60210;-83
2023/04/12 10:14:28;;;;;;;7.50;2.90;;;;;;;25.75;29.79;99138.07;109109;1260;72023;-70
2023/04/12 10:17:19;;;;;;;6.70;2.70;;;;;;;25.44;29.38;99138.73;109159;1257;67817;-71
2023/04/12 10:20:08;;;;;;;8.20;2.90;;;;;;;25.89;29.83;99133.81;109152;1257;72105;-71
2023/04/12 10:22:55;;;;;;;7.70;2.80;;;;;;;26.19;29.00;99130.11;109165;1255;57687;-71
2023/04/12 10:25:47;;;;;;;6.50;2.20;;;;;;;26.57;29.42;99126.41;109174;1256;59684;-69
2023/04/12 10:28:33;;;;;;;8.10;2.90;;;;;;;26.68;28.91;99124.77;109220;1257;72736;-69
2023/04/12 10:31:29;;;;;;;7.70;3.30;;;;;;;26.97;28.42;99115.75;109226;1258;67761;-72
2023/04/12 10:34:17;;;;;;;8.10;3.00;;;;;;;27.04;27.99;99113.89;109055;1256;72352;-70
2023/04/12 10:37:04;;;;;;;7.60;2.80;;;;;;;26.86;27.83;99109.25;109039;1260;56968;-72
2023/04/12 10:39:52;;;;;;;7.60;3.20;;;;;;;26.98;27.84;99111.02;108979;1259;60267;-73
2023/04/12 10:42:39;;;;;;;8.30;3.40;;;;;;;26.93;27.44;99113.08;108937;1260;71253;-72
2023/04/12 10:45:31;;;;;;;6.70;3.20;;;;;;;26.41;27.65;99114.94;109037;1260;67719;-69
2023/04/12 10:48:52;;;;;;;7.80;3.50;;;;;;;25.73;29.06;99115.25;109017;1259;71689;-71
2023/04/12 10:51:59;;;;;;;7.50;3.50;;;;;;;25.42;29.54;99111.55;108972;1259;57756;-70
2023/04/12 10:54:46;;;;;;;6.80;3.40;;;;;;;25.15;29.20;99107.84;108803;1268;59254;-70
2023/04/12 10:57:43;;;;;;;7.40;3.50;;;;;;;25.21;29.15;99109.45;108753;1262;71825;-70
2023/04/12 11:00:55;;;;;;;10.00;3.80;;;;;;;25.38;29.46;99103.70;108737;1263;67753;-74
2023/04/12 11:04:20;;;;;;;9.00;4.10;;;;;;;24.97;29.62;99102.10;108869;1263;72641;-71
2023/04/12 11:07:43;;;;;;;8.10;3.70;;;;;;;24.07;30.49;99095.55;108892;1260;58792;-71
2023/04/12 11:10:49;;;;;;;8.60;4.00;;;;;;;22.74;32.43;99095.86;108995;1259;59034;-68
2023/04/12 11:13:41;;;;;;;9.60;4.40;;;;;;;22.45;33.57;99091.40;109011;1260;70505;-75
2023/04/12 11:16:29;;;;;;;9.40;4.60;;;;;;;22.08;34.62;99092.04;108812;1260;66520;-72
2023/04/12 11:19:16;;;;;;;9.50;4.70;;;;;;;21.81;35.16;99085.60;108923;1260;72582;-74
2023/04/12 11:22:13;;;;;;;11.00;5.60;;;;;;;21.12;36.33;99089.62;108949;1261;57837;-70
2023/04/12 11:25:02;;;;;;;11.40;5.60;;;;;;;20.38;37.40;99086.14;109166;1256;60167;-82
2023/04/12 11:27:51;;;;;;;14.70;5.20;;;;;;;19.52;38.94;99085.55;109177;1257;70673;-83
2023/04/12 11:30:56;;;;;;;10.00;4.70;;;;;;;19.16;39.54;99090.75;109194;1257;66247;-83
2023/04/12 11:33:43;;;;;;;9.40;5.00;;;;;;;18.87;41.04;99086.69;109095;1257;72777;-82
2023/04/12 11:36:30;;;;;;;10.10;4.80;;;;;;;19.07;41.28;99088.50;109094;1256;56865;-83
2023/04/12 11:39:18;;;;;;;9.10;4.40;;;;;;;19.16;40.88;99087.19;108961;1264;58010;-71
2023/04/12 11:42:07;;;;;;;9.90;4.80;;;;;;;19.22;41.05;99089.83;109244;1256;70929;-68
2023/04/12 11:44:55;;;;;;;9.90;4.80;;;;;;;19.01;41.46;99085.52;109197;1257;67829;-69
2023/04/12 11:47:50;;;;;;;8.70;4.60;;;;;;;18.94;41.55;99083.68;109137;1256;72786;-69
2023/04/12 11:50:39;;;;;;;9.20;4.50;;;;;;;18.54;41.62;99084.95;109080;1256;56909;-74
2023/04/12 11:53:29;;;;;;;11.90;5.40;;;;;;;17.97;42.49;99081.14;109054;1260;60088;-69
2023/04/12 11:56:15;;;;;;;10.80;5.60;;;;;;;17.40;43.65;99079.83;109202;1257;72085;-69
2023/04/12 11:59:02;;;;;;;10.40;4.40;;;;;;;16.86;44.93;99083.28;109133;1257;66524;-69
2023/04/12 12:01:50;;;;;;;12.90;5.50;;;;;;;16.33;45.95;99077.18;109121;1257;72482;-71
2023/04/12 12:04:39;;;;;;;13.40;5.50;;;;;;;15.81;47.38;99077.12;109210;1257;56922;-68
2023/04/12 12:07:27;;;;;;;11.00;4.90;;;;;;;15.50;48.69;99072.86;109234;1257;59494;-73
2023/04/12 12:10:14;;;;;;;10.10;5.00;;;;;;;15.30;49.69;99064.98;109191;1256;70950;-73
2023/04/12 12:13:22;;;;;;;10.60;5.20;;;;;;;15.04;50.58;99061.47;109228;1257;66360;-73
2023/04/12 12:16:11;;;;;;;10.60;4.70;;;;;;;14.85;51.18;99059.66;108937;1260;71513;-75
2023/04/12 12:19:03;;;;;;;10.40;5.50;;;;;;;14.64;51.87;99057.55;108868;1260;57639;-73
2023/04/12 12:21:51;;;;;;;10.70;5.20;;;;;;;14.39;52.75;99052.36;109022;1260;59232;-74
2023/04/12 12:24:59;;;;;;;12.10;6.00;;;;;;;14.29;53.92;99053.41;108986;1261;69965;-71
2023/04/12 12:27:50;;;;;;;10.40;5.40;;;;;;;14.30;54.67;99049.73;109021;1260;66671;-72
2023/04/12 12:30:38;;;;;;;10.70;5.50;;;;;;;14.30;54.68;99044.79;108891;1261;71172;-71
2023/04/12 12:33:37;;;;;;;13.30;7.40;;;;;;;14.10;54.98;99043.71;109024;1260;57785;-74
2023/04/12 12:36:37;;;;;;;15.30;8.50;;;;;;;13.78;56.31;99041.07;108980;1261;60230;-72
2023/04/12 12:39:24;;;;;;;13.10;7.10;;;;;;;13.54;57.49;99038.63;108981;1260;72213;-73
2023/04/12 12:42:11;;;;;;;18.40;8.50;;;;;;;13.44;58.23;99033.63;108910;1259;67720;-72
2023/04/12 12:44:57;;;;;;;15.30;7.70;;;;;;;13.16;59.11;99036.91;108976;1260;72585;-73
2023/04/12 12:47:52;;;;;;;17.10;8.70;;;;;;;12.95;60.01;99035.85;109029;1257;57515;-72
2023/04/12 12:50:43;;;;;;;17.60;9.00;;;;;;;12.76;60.96;99037.13;109099;1257;57869;-73
2023/04/12 12:53:31;;;;;;;17.00;9.50;;;;;;;12.59;61.41;99034.25;109061;1260;70893;-75
2023/04/12 12:56:17;;;;;;;18.10;10.90;;;;;;;12.35;62.15;99030.99;109073;1260;66348;-74
2023/04/12 12:59:05;;;;;;;17.10;9.20;;;;;;;12.04;63.93;99030.02;108975;1260;72547;-73
2023/04/12 13:01:53;;;;;;;17.00;9.20;;;;;;;11.89;64.38;99034.44;108845;1263;57013;-75
2023/04/12 13:04:44;;;;;;;16.70;9.40;;;;;;;11.87;64.64;99023.45;108793;1263;60301;-73
2023/04/12 13:07:32;;;;;;;18.70;10.00;;;;;;;11.86;64.80;99028.90;108068;1262;1002773;-73
2023/04/12 13:10:20;;;;;;;17.80;8.90;;;;;;;11.86;64.96;99024.68;108739;1262;67992;-71